TFM - Tactical Decision Aid (Experimental) INFO Settings
ID: Runway Winds: CIG/VIS Threshold: METAR Board: Map:

KDFW - Dallas/Fort Worth Intl

Updated at: 1424 UTC 03 May 2016
Latest TAF at: 1135 UTC 03 May 2016

TAF Board

Time1353Z03/15Z03/16Z03/17Z03/18Z03/19Z03/20Z03/21Z03/22Z03/23Z04/00Z04/01Z04/02Z04/03Z
TypeOBSPRVLPRVLPRVLPRVLPRVLPRVLPRVLPRVLPRVLPRVLPRVLPRVLPRVL
VIS10>6>6>6>6>6>6>6>6>6>6>6>6>6
CIG--------------------------80
CoverCLRSKCSKCSKCSKCSKCSKCSKCSKCSKCSKCSKCSKCBKN
FltCatVFRVFRVFRVFRVFRVFRVFRVFRVFRVFRVFRVFRVFRVFR
WX--------------------------VCSH
WDir35036036036036036036036036036036036036020
WSpd56666666666665
WGst----------------------------
TAF
KDFW 031135Z 0312/0418 36006KT P6SM SKC
  FM040300 02005KT P6SM VCSH BKN080
  FM040600 28005KT P6SM SCT100
  FM040900 31004KT P6SM SKC
  FM041600 34010KT P6SM SKC


METAR
KDFW 031353Z 35005KT 10SM CLR 16/09 A3013 RMK AO2 SLP199 T01610094

TAF/METAR Board Legend

Potential Impact
  None Marginal Slight Moderate High
Visibility (sm) >5 3≤X≤5 1≤X<3 0.5≤X<1 <0.5
Ceiling (100 ft) >30 10≤X≤30 4≤X<10 2≤X<4 <2
Wind Speed (kt) <10 10≤X<20 20≤X<30 ≥30
Wind Gust (kt) <15 15≤X<25 25≤X<35 ≥35
Weather No Wx Reported VCTS -TS,-FZRA TS,FZRA +TS,+FZRA




Page loaded:  14:24 UTC  |   07:24 AM Pacific  |   08:24 AM Mountain  |   09:24 AM Central  |   10:24 AM Eastern